DEARY EDWG-EDWG
Flight info
| Callsign | DEARY |
|---|---|
| Flight time | 0h 48m |
| Altitude | 3000 |
| Route | EDWG |
| Aircraft | PA28/L-SDE2E3FGHIJ1RWXY/LB1 |
Departure
| Time | 2026-05-06 09:26 |
|---|---|
| Airport | Wangerooge Airport (EDWG) |
Arrival
| Time | 2026-05-06 10:15 |
|---|---|
| Airport | Wangerooge Airport (EDWG) |
| Time | Latitude | Longitude | Altitude | Speed | Heading |
|---|---|---|---|---|---|
| 2026-05-06 09:13 | 53.78634 | 7.91041 | 8 ft | 0 kts | 71° |
| 2026-05-06 09:21 | 53.78634 | 7.91045 | 6 ft | 3 kts | 105° |
| 2026-05-06 09:21 | 53.78588 | 7.91022 | 7 ft | 11 kts | 160° |
| 2026-05-06 09:21 | 53.78506 | 7.91098 | 6 ft | 15 kts | 131° |
| 2026-05-06 09:22 | 53.78445 | 7.91240 | 7 ft | 14 kts | 125° |
| 2026-05-06 09:22 | 53.78391 | 7.91362 | 7 ft | 12 kts | 126° |
| 2026-05-06 09:22 | 53.78345 | 7.91449 | 6 ft | 8 kts | 201° |
| 2026-05-06 09:22 | 53.78340 | 7.91364 | 7 ft | 7 kts | 277° |
| 2026-05-06 09:23 | 53.78329 | 7.91321 | 9 ft | 4 kts | 181° |
| 2026-05-06 09:23 | 53.78326 | 7.91321 | 9 ft | 0 kts | 180° |
| 2026-05-06 09:24 | 53.78289 | 7.91322 | 10 ft | 8 kts | 154° |
| 2026-05-06 09:24 | 53.78284 | 7.91331 | 10 ft | 0 kts | 128° |
| 2026-05-06 09:25 | 53.78283 | 7.91332 | 10 ft | 0 kts | 128° |
| 2026-05-06 09:25 | 53.78279 | 7.91406 | 9 ft | 20 kts | 91° |
| 2026-05-06 09:25 | 53.78257 | 7.91930 | 32 ft | 61 kts | 81° |
| 2026-05-06 09:26 | 53.78221 | 7.92733 | 183 ft | 72 kts | 87° |
| 2026-05-06 09:26 | 53.78165 | 7.93604 | 356 ft | 77 kts | 86° |
| 2026-05-06 09:26 | 53.78075 | 7.94518 | 551 ft | 80 kts | 91° |
| 2026-05-06 09:26 | 53.77921 | 7.95411 | 788 ft | 80 kts | 97° |
| 2026-05-06 09:27 | 53.77655 | 7.96269 | 958 ft | 88 kts | 112° |
| 2026-05-06 09:27 | 53.77155 | 7.96951 | 1140 ft | 97 kts | 139° |
| 2026-05-06 09:27 | 53.76568 | 7.97421 | 1340 ft | 93 kts | 141° |
| 2026-05-06 09:27 | 53.75956 | 7.97899 | 1446 ft | 97 kts | 142° |
| 2026-05-06 09:28 | 53.75333 | 7.98302 | 1620 ft | 97 kts | 146° |
| 2026-05-06 09:28 | 53.74668 | 7.98636 | 1747 ft | 101 kts | 149° |
| 2026-05-06 09:28 | 53.73982 | 7.98938 | 1869 ft | 102 kts | 150° |
| 2026-05-06 09:28 | 53.73528 | 7.99142 | 1962 ft | 102 kts | 151° |
| 2026-05-06 09:29 | 53.72814 | 7.99455 | 2027 ft | 113 kts | 152° |
| 2026-05-06 09:29 | 53.72054 | 7.99821 | 2227 ft | 111 kts | 152° |
| 2026-05-06 09:29 | 53.71320 | 8.00150 | 2446 ft | 110 kts | 153° |
| 2026-05-06 09:29 | 53.70543 | 8.00458 | 2668 ft | 116 kts | 156° |
| 2026-05-06 09:30 | 53.69774 | 8.00741 | 2983 ft | 112 kts | 154° |
| 2026-05-06 09:30 | 53.69030 | 8.01017 | 3212 ft | 115 kts | 158° |
| 2026-05-06 09:30 | 53.68229 | 8.01251 | 3211 ft | 127 kts | 156° |
| 2026-05-06 09:30 | 53.67354 | 8.01733 | 3087 ft | 130 kts | 149° |
| 2026-05-06 09:31 | 53.66533 | 8.02320 | 3058 ft | 128 kts | 144° |
| 2026-05-06 09:31 | 53.65733 | 8.02989 | 3088 ft | 127 kts | 142° |
| 2026-05-06 09:31 | 53.64959 | 8.03700 | 3056 ft | 127 kts | 139° |
| 2026-05-06 09:31 | 53.64210 | 8.04503 | 3001 ft | 127 kts | 135° |
| 2026-05-06 09:32 | 53.63517 | 8.05353 | 2967 ft | 123 kts | 133° |
| 2026-05-06 09:32 | 53.62820 | 8.06225 | 2843 ft | 125 kts | 133° |
| 2026-05-06 09:32 | 53.62116 | 8.07071 | 2879 ft | 123 kts | 135° |
| 2026-05-06 09:32 | 53.61407 | 8.07870 | 2813 ft | 124 kts | 136° |
| 2026-05-06 09:33 | 53.60671 | 8.08671 | 2766 ft | 126 kts | 136° |
| 2026-05-06 09:33 | 53.59933 | 8.09405 | 2823 ft | 122 kts | 138° |
| 2026-05-06 09:33 | 53.59186 | 8.10113 | 2772 ft | 124 kts | 140° |
| 2026-05-06 09:33 | 53.58445 | 8.10852 | 2741 ft | 123 kts | 134° |
| 2026-05-06 09:34 | 53.57859 | 8.11834 | 2700 ft | 116 kts | 115° |
| 2026-05-06 09:34 | 53.57516 | 8.13009 | 2703 ft | 109 kts | 100° |
| 2026-05-06 09:34 | 53.57430 | 8.14240 | 2808 ft | 105 kts | 79° |
| 2026-05-06 09:34 | 53.57783 | 8.15246 | 2929 ft | 107 kts | 46° |
| 2026-05-06 09:35 | 53.58426 | 8.15948 | 2984 ft | 110 kts | 32° |
| 2026-05-06 09:35 | 53.58945 | 8.16792 | 3026 ft | 107 kts | 66° |
| 2026-05-06 09:35 | 53.59119 | 8.18012 | 3066 ft | 109 kts | 76° |
| 2026-05-06 09:35 | 53.59267 | 8.19250 | 3157 ft | 106 kts | 76° |
| 2026-05-06 09:36 | 53.59406 | 8.20459 | 3178 ft | 106 kts | 77° |
| 2026-05-06 09:36 | 53.59553 | 8.21686 | 3127 ft | 107 kts | 76° |
| 2026-05-06 09:36 | 53.59697 | 8.22908 | 3094 ft | 106 kts | 77° |
| 2026-05-06 09:36 | 53.59845 | 8.24118 | 3022 ft | 106 kts | 76° |
| 2026-05-06 09:37 | 53.59983 | 8.25337 | 2956 ft | 106 kts | 78° |
| 2026-05-06 09:37 | 53.60107 | 8.26562 | 2897 ft | 107 kts | 77° |
| 2026-05-06 09:37 | 53.60208 | 8.27805 | 2923 ft | 107 kts | 80° |
| 2026-05-06 09:37 | 53.60263 | 8.29039 | 2956 ft | 106 kts | 82° |
| 2026-05-06 09:38 | 53.60290 | 8.30288 | 2919 ft | 108 kts | 87° |
| 2026-05-06 09:38 | 53.60235 | 8.31546 | 2894 ft | 108 kts | 92° |
| 2026-05-06 09:38 | 53.60089 | 8.32777 | 2848 ft | 110 kts | 96° |
| 2026-05-06 09:38 | 53.59894 | 8.34018 | 2927 ft | 108 kts | 99° |
| 2026-05-06 09:39 | 53.59698 | 8.35235 | 3041 ft | 109 kts | 98° |
| 2026-05-06 09:39 | 53.59455 | 8.36472 | 3177 ft | 112 kts | 104° |
| 2026-05-06 09:39 | 53.59101 | 8.37653 | 3285 ft | 114 kts | 111° |
| 2026-05-06 09:39 | 53.58686 | 8.38860 | 3251 ft | 121 kts | 111° |
| 2026-05-06 09:40 | 53.58310 | 8.40108 | 3267 ft | 119 kts | 107° |
| 2026-05-06 09:40 | 53.58009 | 8.41406 | 3240 ft | 118 kts | 102° |
| 2026-05-06 09:40 | 53.57588 | 8.44022 | 3173 ft | 114 kts | 96° |
| 2026-05-06 09:41 | 53.57406 | 8.45310 | 3039 ft | 112 kts | 97° |
| 2026-05-06 09:41 | 53.57235 | 8.46579 | 2705 ft | 106 kts | 95° |
| 2026-05-06 09:41 | 53.57103 | 8.47938 | 2253 ft | 120 kts | 91° |
| 2026-05-06 09:41 | 53.57018 | 8.49194 | 2178 ft | 100 kts | 88° |
| 2026-05-06 09:42 | 53.56964 | 8.50311 | 2103 ft | 96 kts | 85° |
| 2026-05-06 09:42 | 53.57000 | 8.51418 | 2144 ft | 94 kts | 76° |
| 2026-05-06 09:42 | 53.57127 | 8.52490 | 2197 ft | 92 kts | 74° |
| 2026-05-06 09:42 | 53.57283 | 8.53499 | 2315 ft | 86 kts | 64° |
| 2026-05-06 09:43 | 53.57681 | 8.54254 | 2383 ft | 91 kts | 39° |
| 2026-05-06 09:43 | 53.58270 | 8.54713 | 2462 ft | 99 kts | 22° |
| 2026-05-06 09:43 | 53.58936 | 8.54154 | 2482 ft | 134 kts | 307° |
| 2026-05-06 09:43 | 53.58854 | 8.52593 | 2627 ft | 144 kts | 235° |
| 2026-05-06 09:44 | 53.58020 | 8.51775 | 2541 ft | 137 kts | 174° |
| 2026-05-06 09:44 | 53.57239 | 8.52284 | 2513 ft | 113 kts | 120° |
| 2026-05-06 09:44 | 53.57104 | 8.53377 | 2553 ft | 93 kts | 64° |
| 2026-05-06 09:44 | 53.57399 | 8.54340 | 2561 ft | 92 kts | 74° |
| 2026-05-06 09:45 | 53.57089 | 8.55356 | 2536 ft | 119 kts | 135° |
| 2026-05-06 09:45 | 53.56190 | 8.55323 | 2483 ft | 150 kts | 202° |
| 2026-05-06 09:45 | 53.55589 | 8.53941 | 2505 ft | 149 kts | 263° |
| 2026-05-06 09:45 | 53.55859 | 8.52438 | 2496 ft | 126 kts | 329° |
| 2026-05-06 09:46 | 53.56555 | 8.52256 | 2511 ft | 96 kts | 40° |
| 2026-05-06 09:46 | 53.56657 | 8.53323 | 2371 ft | 112 kts | 107° |
| 2026-05-06 09:46 | 53.56140 | 8.54306 | 2311 ft | 105 kts | 115° |
| 2026-05-06 09:46 | 53.55854 | 8.55359 | 2029 ft | 94 kts | 98° |
| 2026-05-06 09:47 | 53.55609 | 8.56347 | 1839 ft | 85 kts | 104° |
| 2026-05-06 09:47 | 53.55335 | 8.57210 | 1563 ft | 86 kts | 116° |
| 2026-05-06 09:47 | 53.54774 | 8.57686 | 1294 ft | 97 kts | 160° |
| 2026-05-06 09:47 | 53.54111 | 8.57606 | 1106 ft | 101 kts | 205° |
| 2026-05-06 09:48 | 53.53892 | 8.56576 | 1112 ft | 98 kts | 300° |
| 2026-05-06 09:48 | 53.54352 | 8.56084 | 1162 ft | 71 kts | 14° |
| 2026-05-06 09:48 | 53.54783 | 8.56401 | 1181 ft | 67 kts | 36° |
| 2026-05-06 09:48 | 53.54630 | 8.57015 | 1146 ft | 89 kts | 157° |
| 2026-05-06 09:49 | 53.54013 | 8.56554 | 799 ft | 105 kts | 214° |
| 2026-05-06 09:49 | 53.53768 | 8.55483 | 274 ft | 99 kts | 290° |
| 2026-05-06 09:49 | 53.53818 | 8.54434 | 31 ft | 84 kts | 279° |
| 2026-05-06 09:49 | 53.53836 | 8.53614 | 16 ft | 55 kts | 271° |
| 2026-05-06 09:50 | 53.53846 | 8.53321 | 17 ft | 8 kts | 274° |
| 2026-05-06 09:50 | 53.53849 | 8.53255 | 17 ft | 4 kts | 267° |
| 2026-05-06 09:50 | 53.53825 | 8.53223 | 16 ft | 4 kts | 179° |
| 2026-05-06 09:50 | 53.53813 | 8.53223 | 16 ft | 0 kts | 180° |
| 2026-05-06 09:51 | 53.53812 | 8.53223 | 16 ft | 0 kts | 180° |
| 2026-05-06 09:51 | 53.53790 | 8.53226 | 15 ft | 5 kts | 172° |
| 2026-05-06 09:51 | 53.53761 | 8.53222 | 16 ft | 3 kts | 124° |
| 2026-05-06 09:51 | 53.53761 | 8.53232 | 16 ft | 0 kts | 32° |
| 2026-05-06 09:57 | 53.53770 | 8.53236 | 18 ft | 6 kts | 7° |
| 2026-05-06 09:57 | 53.53830 | 8.53219 | 17 ft | 13 kts | 342° |
| 2026-05-06 09:57 | 53.53848 | 8.53362 | 18 ft | 30 kts | 92° |
| 2026-05-06 09:57 | 53.53836 | 8.53924 | 83 ft | 54 kts | 81° |
| 2026-05-06 09:58 | 53.53858 | 8.54531 | 300 ft | 52 kts | 65° |
| 2026-05-06 09:58 | 53.54183 | 8.54657 | 520 ft | 66 kts | 344° |
| 2026-05-06 09:58 | 53.54512 | 8.54000 | 694 ft | 77 kts | 314° |
| 2026-05-06 09:58 | 53.54758 | 8.53191 | 885 ft | 79 kts | 308° |
| 2026-05-06 09:59 | 53.55010 | 8.52315 | 1031 ft | 89 kts | 307° |
| 2026-05-06 09:59 | 53.55274 | 8.51369 | 1247 ft | 89 kts | 307° |
| 2026-05-06 09:59 | 53.55549 | 8.50395 | 1415 ft | 94 kts | 308° |
| 2026-05-06 09:59 | 53.55863 | 8.49384 | 1572 ft | 103 kts | 309° |
| 2026-05-06 10:00 | 53.56206 | 8.48309 | 1788 ft | 107 kts | 309° |
| 2026-05-06 10:00 | 53.56529 | 8.47204 | 2038 ft | 105 kts | 309° |
| 2026-05-06 10:00 | 53.56875 | 8.46096 | 2223 ft | 109 kts | 310° |
| 2026-05-06 10:00 | 53.57235 | 8.44952 | 2408 ft | 112 kts | 310° |
| 2026-05-06 10:01 | 53.57598 | 8.43774 | 2591 ft | 114 kts | 309° |
| 2026-05-06 10:01 | 53.57963 | 8.42594 | 2777 ft | 115 kts | 309° |
| 2026-05-06 10:01 | 53.58333 | 8.41366 | 2958 ft | 117 kts | 308° |
| 2026-05-06 10:01 | 53.58728 | 8.40158 | 3144 ft | 117 kts | 310° |
| 2026-05-06 10:02 | 53.59167 | 8.38900 | 3185 ft | 131 kts | 311° |
| 2026-05-06 10:02 | 53.59644 | 8.37625 | 3298 ft | 128 kts | 312° |
| 2026-05-06 10:02 | 53.60115 | 8.36356 | 3356 ft | 129 kts | 311° |
| 2026-05-06 10:02 | 53.60575 | 8.35032 | 3372 ft | 132 kts | 308° |
| 2026-05-06 10:03 | 53.61023 | 8.33694 | 3512 ft | 131 kts | 309° |
| 2026-05-06 10:03 | 53.61507 | 8.32359 | 3566 ft | 135 kts | 310° |
| 2026-05-06 10:03 | 53.61992 | 8.31005 | 3630 ft | 137 kts | 310° |
| 2026-05-06 10:03 | 53.62489 | 8.29617 | 3643 ft | 137 kts | 309° |
| 2026-05-06 10:04 | 53.62970 | 8.28226 | 3637 ft | 140 kts | 309° |
| 2026-05-06 10:04 | 53.63451 | 8.26817 | 3668 ft | 140 kts | 309° |
| 2026-05-06 10:04 | 53.63943 | 8.25423 | 3725 ft | 138 kts | 309° |
| 2026-05-06 10:04 | 53.64440 | 8.24020 | 3610 ft | 139 kts | 309° |
| 2026-05-06 10:05 | 53.64944 | 8.22648 | 3492 ft | 137 kts | 311° |
| 2026-05-06 10:05 | 53.65463 | 8.21292 | 3382 ft | 136 kts | 312° |
| 2026-05-06 10:05 | 53.65984 | 8.19998 | 3359 ft | 132 kts | 314° |
| 2026-05-06 10:05 | 53.66523 | 8.18722 | 3269 ft | 134 kts | 315° |
| 2026-05-06 10:06 | 53.67049 | 8.17446 | 3235 ft | 131 kts | 314° |
| 2026-05-06 10:06 | 53.67548 | 8.16181 | 3222 ft | 130 kts | 312° |
| 2026-05-06 10:06 | 53.68029 | 8.14880 | 3188 ft | 131 kts | 310° |
| 2026-05-06 10:06 | 53.68499 | 8.13566 | 3151 ft | 131 kts | 310° |
| 2026-05-06 10:07 | 53.68972 | 8.12257 | 3131 ft | 131 kts | 311° |
| 2026-05-06 10:07 | 53.69450 | 8.10963 | 3129 ft | 130 kts | 312° |
| 2026-05-06 10:07 | 53.69944 | 8.09683 | 3131 ft | 130 kts | 313° |
| 2026-05-06 10:07 | 53.70450 | 8.08434 | 3136 ft | 128 kts | 315° |
| 2026-05-06 10:08 | 53.70968 | 8.07216 | 3123 ft | 127 kts | 316° |
| 2026-05-06 10:08 | 53.71501 | 8.06025 | 3096 ft | 127 kts | 319° |
| 2026-05-06 10:08 | 53.72059 | 8.04882 | 3064 ft | 126 kts | 322° |
| 2026-05-06 10:08 | 53.72651 | 8.03812 | 3029 ft | 124 kts | 325° |
| 2026-05-06 10:09 | 53.73221 | 8.02815 | 2959 ft | 121 kts | 322° |
| 2026-05-06 10:09 | 53.73711 | 8.01569 | 2897 ft | 129 kts | 308° |
| 2026-05-06 10:09 | 53.74066 | 8.00159 | 2850 ft | 130 kts | 296° |
| 2026-05-06 10:09 | 53.74237 | 7.98824 | 3089 ft | 93 kts | 289° |
| 2026-05-06 10:10 | 53.74349 | 7.97527 | 2657 ft | 120 kts | 283° |
| 2026-05-06 10:10 | 53.74425 | 7.96098 | 2392 ft | 132 kts | 281° |
| 2026-05-06 10:10 | 53.74560 | 7.94393 | 2177 ft | 152 kts | 285° |
| 2026-05-06 10:10 | 53.74730 | 7.92636 | 2017 ft | 147 kts | 288° |
| 2026-05-06 10:11 | 53.75188 | 7.91323 | 1750 ft | 116 kts | 338° |
| 2026-05-06 10:11 | 53.75920 | 7.91169 | 1473 ft | 104 kts | 16° |
| 2026-05-06 10:11 | 53.76617 | 7.91356 | 1298 ft | 103 kts | 18° |
| 2026-05-06 10:11 | 53.77285 | 7.91612 | 1196 ft | 84 kts | 21° |
| 2026-05-06 10:12 | 53.77804 | 7.91845 | 1073 ft | 69 kts | 22° |
| 2026-05-06 10:12 | 53.78262 | 7.91978 | 1029 ft | 71 kts | 17° |
| 2026-05-06 10:12 | 53.78775 | 7.92119 | 978 ft | 71 kts | 18° |
| 2026-05-06 10:12 | 53.79231 | 7.92082 | 862 ft | 70 kts | 335° |
| 2026-05-06 10:13 | 53.79373 | 7.91136 | 636 ft | 89 kts | 282° |
| 2026-05-06 10:13 | 53.79407 | 7.90146 | 574 ft | 87 kts | 287° |
| 2026-05-06 10:13 | 53.79259 | 7.89143 | 588 ft | 97 kts | 216° |
| 2026-05-06 10:13 | 53.78669 | 7.88908 | 500 ft | 83 kts | 162° |
| 2026-05-06 10:14 | 53.78347 | 7.89389 | 419 ft | 59 kts | 86° |
| 2026-05-06 10:14 | 53.78340 | 7.89842 | 339 ft | 58 kts | 81° |
| 2026-05-06 10:14 | 53.78313 | 7.90512 | 210 ft | 56 kts | 83° |
| 2026-05-06 10:14 | 53.78287 | 7.91163 | 50 ft | 53 kts | 76° |
| 2026-05-06 10:15 | 53.78267 | 7.91720 | 5 ft | 42 kts | 85° |
| 2026-05-06 10:15 | 53.78246 | 7.92326 | 111 ft | 57 kts | 80° |
| 2026-05-06 10:15 | 53.78412 | 7.92731 | 363 ft | 48 kts | 12° |
| 2026-05-06 10:15 | 53.78793 | 7.92708 | 534 ft | 55 kts | 6° |
| 2026-05-06 10:16 | 53.79103 | 7.92220 | 785 ft | 79 kts | 299° |
| 2026-05-06 10:16 | 53.79142 | 7.91199 | 782 ft | 91 kts | 285° |
| 2026-05-06 10:16 | 53.79206 | 7.90113 | 691 ft | 93 kts | 290° |
| 2026-05-06 10:16 | 53.79150 | 7.89049 | 680 ft | 97 kts | 227° |
| 2026-05-06 10:17 | 53.78626 | 7.89043 | 530 ft | 68 kts | 117° |
| 2026-05-06 10:17 | 53.78348 | 7.89700 | 316 ft | 67 kts | 91° |
| 2026-05-06 10:17 | 53.78320 | 7.90425 | 205 ft | 59 kts | 82° |
| 2026-05-06 10:17 | 53.78292 | 7.91103 | 68 ft | 58 kts | 82° |
| 2026-05-06 10:18 | 53.78273 | 7.91703 | 5 ft | 42 kts | 91° |
| 2026-05-06 10:18 | 53.78229 | 7.92301 | 130 ft | 53 kts | 85° |
| 2026-05-06 10:18 | 53.78347 | 7.92643 | 283 ft | 53 kts | 11° |
| 2026-05-06 10:19 | 53.78436 | 7.92635 | 329 ft | 56 kts | 5° |
| 2026-05-06 10:19 | 53.78880 | 7.92528 | 499 ft | 69 kts | 347° |
| 2026-05-06 10:19 | 53.79076 | 7.91545 | 667 ft | 104 kts | 287° |
| 2026-05-06 10:19 | 53.79192 | 7.90308 | 597 ft | 109 kts | 289° |
| 2026-05-06 10:20 | 53.79226 | 7.89093 | 581 ft | 102 kts | 251° |
| 2026-05-06 10:20 | 53.78707 | 7.88581 | 469 ft | 83 kts | 171° |
| 2026-05-06 10:20 | 53.78283 | 7.88903 | 463 ft | 57 kts | 83° |
| 2026-05-06 10:20 | 53.78338 | 7.89523 | 404 ft | 48 kts | 72° |
| 2026-05-06 10:21 | 53.78339 | 7.90102 | 285 ft | 49 kts | 82° |
| 2026-05-06 10:21 | 53.78304 | 7.90653 | 177 ft | 47 kts | 78° |
| 2026-05-06 10:21 | 53.78285 | 7.91245 | 27 ft | 50 kts | 76° |
| 2026-05-06 10:21 | 53.78263 | 7.91774 | 3 ft | 36 kts | 94° |
| 2026-05-06 10:22 | 53.78254 | 7.92041 | 4 ft | 13 kts | 92° |
| 2026-05-06 10:22 | 53.78253 | 7.92164 | 4 ft | 7 kts | 38° |
| 2026-05-06 10:22 | 53.78276 | 7.92184 | 5 ft | 0 kts | 26° |